Time;durP1;ratioP1;P1;durP2;ratioP2;P2;SDS_P1;SDS_P2;PMS_P1;PMS_P2;Temp;Humidity;BMP_temperature;BMP_pressure;BME280_temperature;BME280_humidity;BME280_pressure;Samples;Min_cycle;Max_cycle;Signal;HPM_P1;HPM_P2
2024/03/29 00:02:04;;;;;;;;;6.75;4.00;;;;;-143.90;100.00;74630.59;4841574;28;104542;-76
2024/03/29 00:04:30;;;;;;;;;3.00;3.00;;;;;-143.90;100.00;74622.34;4848483;28;102354;-76
2024/03/29 00:06:56;;;;;;;;;2.25;2.25;;;;;-143.90;100.00;74622.34;4851672;28;102277;-76
2024/03/29 00:09:21;;;;;;;;;3.00;2.00;;;;;-143.90;100.00;74618.19;4847333;28;102631;-76
2024/03/29 00:11:47;;;;;;;;;1.25;1.00;;;;;-143.90;100.00;74618.19;4852313;28;104590;-76
2024/03/29 00:14:13;;;;;;;;;1.50;1.50;;;;;-143.90;100.00;74630.59;4853769;28;104052;-75
2024/03/29 00:16:38;;;;;;;;;1.00;1.00;;;;;-143.90;100.00;74632.66;4841653;28;105287;-75
2024/03/29 00:19:04;;;;;;;;;2.25;2.00;;;;;-143.90;100.00;74647.13;4848994;28;102335;-75
2024/03/29 00:21:30;;;;;;;;;1.50;1.50;;;;;-143.90;100.00;74653.34;4852080;28;104602;-76
2024/03/29 00:23:56;;;;;;;;;2.00;2.00;;;;;-143.90;100.00;74663.66;4855079;28;103568;-75
2024/03/29 00:26:21;;;;;;;;;3.50;3.00;;;;;-143.90;100.00;74676.06;4844801;28;102309;-75
2024/03/29 00:28:47;;;;;;;;;3.00;2.25;;;;;-143.90;100.00;74692.63;4843665;28;102081;-75
2024/03/29 00:31:12;;;;;;;;;3.25;3.00;;;;;-143.90;100.00;74694.69;4847370;28;104651;-76
2024/03/29 00:33:38;;;;;;;;;4.50;2.75;;;;;-143.90;100.00;74696.75;4844515;28;102247;-76
2024/03/29 00:36:04;;;;;;;;;2.00;2.00;;;;;-143.90;100.00;74700.88;4848041;28;102817;-74
2024/03/29 00:38:29;;;;;;;;;3.75;3.25;;;;;-143.90;100.00;74705.00;4845131;28;102183;-75
2024/03/29 00:40:55;;;;;;;;;3.00;2.25;;;;;-143.90;100.00;74705.00;4846140;28;104396;-74
2024/03/29 00:43:20;;;;;;;;;3.00;3.00;;;;;-143.90;100.00;74705.00;4852514;28;102220;-75
2024/03/29 00:45:46;;;;;;;;;2.25;2.00;;;;;-143.90;100.00;74700.88;4850577;28;102105;-75
2024/03/29 00:48:15;;;;;;;;;3.00;3.00;;;;;-143.90;100.00;74709.16;4852484;28;102112;-75
2024/03/29 00:50:41;;;;;;;;;3.75;3.25;;;;;-143.90;100.00;74713.28;4843240;28;105391;-74
2024/03/29 00:53:06;;;;;;;;;4.00;3.00;;;;;-143.90;100.00;74715.34;4848899;28;102264;-75
2024/03/29 00:55:32;;;;;;;;;4.00;3.25;;;;;-143.90;100.00;74723.63;4870425;28;102723;-73
2024/03/29 00:57:57;;;;;;;;;3.25;3.00;;;;;-143.90;100.00;74738.09;4856044;28;102621;-75
2024/03/29 01:00:23;;;;;;;;;3.00;2.00;;;;;-143.90;100.00;74742.22;4843894;28;105083;-72
2024/03/29 01:02:49;;;;;;;;;4.00;4.00;;;;;-143.90;100.00;74748.44;4850401;28;102105;-75
2024/03/29 01:05:15;;;;;;;;;5.50;4.00;;;;;-143.90;100.00;74762.91;4847668;28;102881;-72
2024/03/29 01:07:41;;;;;;;;;3.00;3.00;;;;;-143.90;100.00;74771.16;4856450;28;102451;-73
2024/03/29 01:10:08;;;;;;;;;3.50;3.00;;;;;-143.90;100.00;74779.44;4864363;28;105027;-75
2024/03/29 01:12:35;;;;;;;;;4.00;3.00;;;;;-143.90;100.00;74789.78;4838200;28;103865;-70
2024/03/29 01:15:02;;;;;;;;;6.75;3.75;;;;;-143.90;100.00;74808.38;4857152;28;102451;-75
2024/03/29 01:17:28;;;;;;;;;6.00;4.00;;;;;-143.90;100.00;74812.50;4854987;28;102683;-73
2024/03/29 01:19:54;;;;;;;;;6.75;4.00;;;;;-143.90;100.00;74816.66;4856032;28;104912;-74
2024/03/29 01:22:19;;;;;;;;;3.75;3.00;;;;;-143.90;100.00;74833.19;4844176;28;103042;-75
2024/03/29 01:24:45;;;;;;;;;3.25;3.00;;;;;-143.90;100.00;74845.59;4845911;28;102421;-74
2024/03/29 01:27:11;;;;;;;;;2.75;2.75;;;;;-143.90;100.00;74845.59;4854271;28;102628;-74
2024/03/29 01:29:37;;;;;;;;;3.00;3.00;;;;;-143.90;100.00;74858.00;4851167;28;104553;-74
2024/03/29 01:32:03;;;;;;;;;3.75;3.00;;;;;-143.90;100.00;74868.31;4851056;28;104424;-75
2024/03/29 01:34:29;;;;;;;;;0.25;0.25;;;;;-143.90;100.00;74874.53;4835218;28;104980;-74
2024/03/29 01:36:55;;;;;;;;;6.50;5.50;;;;;-143.90;100.00;74886.94;4844367;28;103552;-75
2024/03/29 01:39:26;;;;;;;;;3.75;3.75;;;;;-143.90;100.00;74891.06;4855248;28;104511;-75
2024/03/29 01:41:52;;;;;;;;;6.00;4.50;;;;;-143.90;100.00;74903.47;4854573;28;102613;-75
2024/03/29 01:44:18;;;;;;;;;3.00;3.00;;;;;-143.90;100.00;74909.66;4845094;28;102059;-75
2024/03/29 01:46:46;;;;;;;;;6.00;4.00;;;;;-143.90;100.00;74917.94;4863788;28;104316;-74
2024/03/29 01:49:12;;;;;;;;;6.00;6.00;;;;;-143.90;100.00;74926.22;4848086;28;104613;-74
2024/03/29 01:51:39;;;;;;;;;4.50;4.00;;;;;-143.90;100.00;74936.53;4851482;28;102536;-74
2024/03/29 01:54:07;;;;;;;;;6.00;6.00;;;;;-143.90;100.00;74948.94;4854725;28;102316;-74
2024/03/29 01:56:35;;;;;;;;;9.50;8.25;;;;;-143.90;100.00;74951.00;4841456;28;102015;-74
2024/03/29 01:59:03;;;;;;;;;11.25;8.00;;;;;-143.90;100.00;74967.56;4867784;28;109384;-74
2024/03/29 02:01:30;;;;;;;;;5.50;4.00;;;;;-143.90;100.00;74971.69;4858880;28;102141;-75
2024/03/29 02:03:56;;;;;;;;;6.00;4.00;;;;;-143.90;100.00;74977.88;4847665;28;102275;-75
2024/03/29 02:06:23;;;;;;;;;7.00;6.00;;;;;-143.90;100.00;74975.81;4847264;28;102101;-74
2024/03/29 02:08:53;;;;;;;;;6.00;3.75;;;;;-143.90;100.00;74986.16;4846284;28;105843;-74
2024/03/29 02:11:20;;;;;;;;;4.00;2.75;;;;;-143.90;100.00;74994.44;4851440;28;102649;-75
2024/03/29 02:13:46;;;;;;;;;3.25;3.25;;;;;-143.90;100.00;74998.56;4851654;28;101958;-75
2024/03/29 02:16:12;;;;;;;;;2.25;2.00;;;;;-143.90;100.00;75004.75;4845567;28;102324;-75
2024/03/29 02:18:37;;;;;;;;;3.00;2.50;;;;;-143.90;100.00;75015.09;4835470;28;104813;-75
2024/03/29 02:21:03;;;;;;;;;4.00;3.00;;;;;-143.90;100.00;75019.22;4852088;28;102001;-74
2024/03/29 02:23:32;;;;;;;;;4.00;2.25;;;;;-143.90;100.00;75031.63;4864883;28;102305;-75
2024/03/29 02:25:57;;;;;;;;;6.00;4.00;;;;;-143.90;100.00;75037.84;4854883;28;102642;-74
2024/03/29 02:28:24;;;;;;;;;3.25;3.25;;;;;-143.90;100.00;75044.03;4836504;28;104603;-74
2024/03/29 02:30:50;;;;;;;;;4.00;2.00;;;;;-143.90;100.00;75046.09;4853647;28;102187;-75
2024/03/29 02:33:16;;;;;;;;;2.25;2.25;;;;;-143.90;100.00;75060.59;4848024;28;102432;-75
2024/03/29 02:35:42;;;;;;;;;3.75;3.00;;;;;-143.90;100.00;75068.84;4853347;28;102443;-75
2024/03/29 02:38:07;;;;;;;;;2.50;2.00;;;;;-143.90;100.00;75077.13;4847387;28;104759;-74
2024/03/29 02:40:33;;;;;;;;;2.75;2.00;;;;;-143.90;100.00;75081.25;4844386;28;105745;-75
2024/03/29 02:42:58;;;;;;;;;2.00;2.00;;;;;-143.90;100.00;75085.38;4847706;28;102235;-74
2024/03/29 02:45:24;;;;;;;;;4.00;3.00;;;;;-143.90;100.00;75097.78;4850243;28;102200;-74
2024/03/29 02:47:50;;;;;;;;;2.50;2.00;;;;;-143.90;100.00;75095.72;4852450;28;105227;-75
2024/03/29 02:50:16;;;;;;;;;3.00;3.00;;;;;-143.90;100.00;75101.94;4851716;28;102584;-75
2024/03/29 02:52:42;;;;;;;;;4.50;3.00;;;;;-143.90;100.00;75122.59;4841695;28;102466;-74
2024/03/29 02:55:10;;;;;;;;;6.00;4.25;;;;;-143.90;100.00;75126.75;4850062;28;102218;-74
2024/03/29 02:57:36;;;;;;;;;1.00;0.25;;;;;-143.90;100.00;75126.75;4852146;28;104546;-74
2024/03/29 03:00:03;;;;;;;;;2.75;2.75;;;;;-143.90;100.00;75128.81;4868437;28;103296;-75
2024/03/29 03:02:28;;;;;;;;;1.25;1.00;;;;;-143.90;100.00;75135.00;4840758;28;102303;-74
2024/03/29 03:04:54;;;;;;;;;2.25;2.25;;;;;-143.90;100.00;75139.16;4859393;28;102123;-75
2024/03/29 03:12:48;;;;;;;;;3.25;3.00;;;;;-143.90;100.00;75159.81;4865204;28;102343;-75
2024/03/29 03:15:14;;;;;;;;;6.00;5.00;;;;;-143.90;100.00;75168.09;4850282;28;102362;-75
2024/03/29 03:17:40;;;;;;;;;3.75;3.75;;;;;-143.90;100.00;75168.09;4850745;28;104578;-75
2024/03/29 03:20:06;;;;;;;;;5.25;3.00;;;;;-143.90;100.00;75176.34;4867484;28;107688;-74
2024/03/29 03:22:32;;;;;;;;;4.25;3.00;;;;;-143.90;100.00;75176.34;4844667;28;102622;-76
2024/03/29 03:24:58;;;;;;;;;6.75;5.50;;;;;-143.90;100.00;75184.63;4849469;28;102734;-74
2024/03/29 03:27:23;;;;;;;;;6.00;5.25;;;;;-143.90;100.00;75190.81;4849460;28;104428;-75
2024/03/29 03:29:49;;;;;;;;;3.50;3.50;;;;;-143.90;100.00;75184.63;4850071;28;102510;-76
2024/03/29 03:32:14;;;;;;;;;6.00;4.75;;;;;-143.90;100.00;75184.63;4856877;28;102409;-76
2024/03/29 03:34:40;;;;;;;;;5.50;5.00;;;;;-143.90;100.00;75188.75;4833331;28;102500;-76
2024/03/29 03:37:06;;;;;;;;;5.75;5.25;;;;;-143.90;100.00;75197.03;4852208;28;104614;-72
2024/03/29 03:39:31;;;;;;;;;6.25;5.00;;;;;-143.90;100.00;75197.03;4851543;28;102981;-76
2024/03/29 03:41:57;;;;;;;;;4.75;4.75;;;;;-143.90;100.00;75199.09;4846960;28;102407;-76
2024/03/29 03:44:24;;;;;;;;;4.00;3.00;;;;;-143.90;100.00;75203.22;4847751;28;102570;-73
2024/03/29 03:46:50;;;;;;;;;5.00;3.50;;;;;-143.90;100.00;75203.22;4855163;28;104689;-75
2024/03/29 03:49:16;;;;;;;;;3.00;2.00;;;;;-143.90;100.00;75203.22;4850773;28;102338;-75
2024/03/29 03:51:42;;;;;;;;;3.00;3.00;;;;;-143.90;100.00;75205.28;4845390;28;102473;-75
2024/03/29 03:54:07;;;;;;;;;3.00;2.00;;;;;-143.90;100.00;75209.44;4846492;28;102260;-74
2024/03/29 03:56:33;;;;;;;;;3.00;2.00;;;;;-143.90;100.00;75207.38;4841291;28;104558;-76
2024/03/29 03:58:58;;;;;;;;;3.00;3.00;;;;;-143.90;100.00;75211.50;4853938;28;103661;-75
2024/03/29 04:01:24;;;;;;;;;2.50;1.00;;;;;-143.90;100.00;75207.38;4846469;28;102041;-77
2024/03/29 04:03:50;;;;;;;;;2.00;2.00;;;;;-143.90;100.00;75221.84;4850347;28;102635;-76
2024/03/29 04:06:15;;;;;;;;;1.75;1.75;;;;;-143.90;100.00;75213.56;4845090;28;104463;-76
2024/03/29 04:08:44;;;;;;;;;3.50;2.00;;;;;-143.90;100.00;75217.69;4843516;28;102424;-75
2024/03/29 04:11:09;;;;;;;;;1.00;1.00;;;;;-143.90;100.00;75223.91;4849047;28;102318;-76
2024/03/29 04:13:36;;;;;;;;;2.00;2.00;;;;;-143.90;100.00;75228.03;4854605;28;102160;-75
2024/03/29 04:16:05;;;;;;;;;5.00;2.25;;;;;-143.90;100.00;75223.91;4859072;28;104775;-76
2024/03/29 04:18:32;;;;;;;;;1.50;1.00;;;;;-143.90;100.00;75225.97;4845504;28;102545;-75
2024/03/29 04:20:58;;;;;;;;;3.00;2.00;;;;;-143.90;100.00;75225.97;4847942;28;102311;-76
2024/03/29 04:23:24;;;;;;;;;1.00;1.00;;;;;-143.90;100.00;75221.84;4852828;28;102135;-75
2024/03/29 04:25:53;;;;;;;;;2.00;2.00;;;;;-143.90;100.00;75219.78;4871411;28;104687;-76
2024/03/29 04:28:19;;;;;;;;;0.50;0.50;;;;;-143.90;100.00;75230.09;4847600;28;103817;-75
2024/03/29 04:30:55;;;;;;;;;1.75;1.00;;;;;-143.90;100.00;75234.25;4849314;28;102387;-74
2024/03/29 04:33:21;;;;;;;;;1.50;1.00;;;;;-143.90;100.00;75248.72;4861117;28;102713;-75
2024/03/29 04:35:54;;;;;;;;;0.00;0.00;;;;;-143.90;100.00;75246.66;4847095;28;104499;-75
2024/03/29 04:38:19;;;;;;;;;4.00;2.00;;;;;-143.90;100.00;75248.72;4844594;28;103565;-75
2024/03/29 04:40:45;;;;;;;;;3.50;1.00;;;;;-143.90;100.00;75252.84;4849463;28;102077;-75
2024/03/29 04:43:11;;;;;;;;;1.75;1.00;;;;;-143.90;100.00;75256.97;4852049;28;102068;-75
2024/03/29 04:45:36;;;;;;;;;1.00;1.00;;;;;-143.90;100.00;75271.47;4852508;28;104610;-74
2024/03/29 04:48:02;;;;;;;;;1.75;1.00;;;;;-143.90;100.00;75271.47;4856570;28;102915;-76
2024/03/29 04:50:28;;;;;;;;;1.00;1.00;;;;;-143.90;100.00;75271.47;4839761;28;102826;-75
2024/03/29 04:52:53;;;;;;;;;1.50;1.50;;;;;-143.90;100.00;75281.78;4850955;28;102162;-75
2024/03/29 04:55:19;;;;;;;;;1.75;1.75;;;;;-143.90;100.00;75261.13;4853068;28;104505;-75
2024/03/29 04:57:45;;;;;;;;;1.00;1.00;;;;;-143.90;100.00;75259.06;4851166;28;104201;-74
2024/03/29 05:00:11;;;;;;;;;3.00;1.25;;;;;-143.90;100.00;75259.06;4847880;28;102254;-75
2024/03/29 05:02:37;;;;;;;;;1.00;1.00;;;;;-143.90;100.00;75248.72;4837192;28;102866;-75
2024/03/29 05:05:03;;;;;;;;;3.00;2.50;;;;;-143.90;100.00;75248.72;4861078;28;104596;-75
2024/03/29 05:07:28;;;;;;;;;4.50;3.00;;;;;-143.90;100.00;75244.59;4850645;28;102872;-75
2024/03/29 05:09:55;;;;;;;;;4.75;2.50;;;;;-143.90;100.00;75234.25;4852906;28;102588;-75
2024/03/29 05:12:21;;;;;;;;;2.00;2.00;;;;;-143.90;100.00;75221.84;4847052;28;103029;-76
2024/03/29 05:14:49;;;;;;;;;2.00;1.50;;;;;-143.90;100.00;75221.84;4849920;28;106355;-75
2024/03/29 05:17:16;;;;;;;;;1.00;1.00;;;;;-143.90;100.00;75219.78;4850338;28;102601;-75
2024/03/29 05:19:41;;;;;;;;;3.00;1.75;;;;;-143.90;100.00;75225.97;4859244;28;103822;-74
2024/03/29 05:22:07;;;;;;;;;3.00;3.00;;;;;-143.90;100.00;75223.91;4852262;28;102131;-74
2024/03/29 05:24:32;;;;;;;;;3.00;3.00;;;;;-143.90;100.00;75232.19;4846276;28;104659;-75
2024/03/29 05:26:58;;;;;;;;;3.00;1.75;;;;;-143.90;100.00;75217.69;4854657;28;102474;-74
2024/03/29 05:29:23;;;;;;;;;2.50;2.50;;;;;-143.90;100.00;75213.56;4838180;28;102317;-75
2024/03/29 05:31:49;;;;;;;;;2.50;1.50;;;;;-143.90;100.00;75215.63;4852146;28;102737;-74
2024/03/29 05:34:14;;;;;;;;;2.00;2.00;;;;;-143.90;100.00;75234.25;4849569;28;104647;-74
2024/03/29 05:36:40;;;;;;;;;3.00;2.00;;;;;-143.90;100.00;75230.09;4845705;28;102293;-74
2024/03/29 05:39:06;;;;;;;;;4.75;3.50;;;;;-143.90;100.00;75230.09;4851365;28;102606;-72
2024/03/29 05:41:32;;;;;;;;;5.00;3.50;;;;;-143.90;100.00;75225.97;4856613;28;102235;-75
2024/03/29 05:44:00;;;;;;;;;6.50;5.75;;;;;-143.90;100.00;75213.56;4851863;28;104544;-74
2024/03/29 05:46:26;;;;;;;;;5.75;3.00;;;;;-143.90;100.00;75205.28;4847939;28;102900;-74
2024/03/29 05:48:51;;;;;;;;;2.00;2.00;;;;;-143.90;100.00;75199.09;4856740;28;102280;-73
2024/03/29 05:51:17;;;;;;;;;2.50;1.75;;;;;-143.90;100.00;75186.69;4858861;28;102351;-74
2024/03/29 05:53:43;;;;;;;;;1.25;1.00;;;;;-143.90;100.00;75180.50;4852806;28;104772;-74
2024/03/29 05:56:08;;;;;;;;;4.50;4.50;;;;;-143.90;100.00;75170.16;4850682;28;102521;-73
2024/03/29 05:58:34;;;;;;;;;6.00;4.50;;;;;-143.90;100.00;75155.69;4848157;28;102747;-73
2024/03/29 06:01:00;;;;;;;;;6.25;2.00;;;;;-143.90;100.00;75151.53;4855855;28;102231;-74
2024/03/29 06:03:25;;;;;;;;;4.00;3.00;;;;;-143.90;100.00;75149.47;4844112;28;104532;-73
2024/03/29 06:05:51;;;;;;;;;7.00;4.00;;;;;-143.90;100.00;75143.28;4852185;28;102358;-73
2024/03/29 06:08:17;;;;;;;;;2.50;2.50;;;;;-143.90;100.00;75128.81;4850231;28;102178;-73
2024/03/29 06:10:42;;;;;;;;;4.50;3.00;;;;;-143.90;100.00;75106.06;4839832;28;103331;-73
2024/03/29 06:13:10;;;;;;;;;4.00;3.00;;;;;-143.90;100.00;75097.78;4848520;28;104447;-74
2024/03/29 06:18:20;;;;;;;;;4.00;4.00;;;;;-143.90;100.00;75077.13;4833463;28;103266;-75
2024/03/29 06:20:47;;;;;;;;;3.75;3.75;;;;;-143.90;100.00;75056.44;4826144;28;104727;-75
2024/03/29 06:23:12;;;;;;;;;3.00;3.00;;;;;-143.90;100.00;75025.44;4811992;28;105242;-74
2024/03/29 06:25:38;;;;;;;;;1.75;1.25;;;;;-143.90;100.00;75006.84;4832419;28;111472;-75
2024/03/29 06:28:04;;;;;;;;;3.25;2.75;;;;;-143.90;100.00;74957.22;4831506;28;102524;-75
2024/03/29 06:30:30;;;;;;;;;3.00;2.00;;;;;-143.90;100.00;74889.00;4820467;28;102590;-75
2024/03/29 06:32:55;;;;;;;;;2.00;2.00;;;;;-143.90;100.00;74798.03;4834321;28;104901;-75
2024/03/29 06:35:22;;;;;;;;;4.00;2.00;;;;;-143.90;100.00;74733.97;4835203;28;102134;-74
2024/03/29 06:37:47;;;;;;;;;2.75;2.75;;;;;-143.90;100.00;74729.81;4827581;28;102547;-75
2024/03/29 06:40:13;;;;;;;;;2.25;2.00;;;;;-143.90;100.00;74692.63;4825279;28;102458;-73
2024/03/29 06:42:38;;;;;;;;;4.00;2.00;;;;;-143.90;100.00;74696.75;4817963;28;104712;-73
2024/03/29 06:45:05;;;;;;;;;1.00;1.00;;;;;-143.90;100.00;74640.94;4825990;28;102468;-73
2024/03/29 06:47:31;;;;;;;;;4.00;3.00;;;;;-143.90;100.00;74636.81;4822522;28;102176;-73
2024/03/29 06:49:57;;;;;;;;;2.00;2.00;;;;;-143.90;100.00;74593.38;4824631;28;102613;-73
2024/03/29 06:52:22;;;;;;;;;2.00;1.75;;;;;-143.90;100.00;74614.06;4827015;28;104821;-74
2024/03/29 06:54:48;;;;;;;;;1.00;1.00;;;;;-143.90;100.00;74626.47;4823894;28;105870;-73
2024/03/29 06:57:17;;;;;;;;;1.00;1.00;;;;;-143.90;100.00;74576.84;4819536;28;102509;-74
2024/03/29 06:59:43;;;;;;;;;2.00;1.25;;;;;-143.90;100.00;74572.72;4829642;28;102118;-74
2024/03/29 07:02:10;;;;;;;;;2.50;2.50;;;;;-143.90;100.00;74564.44;4836582;28;104973;-73
2024/03/29 07:04:35;;;;;;;;;2.00;1.00;;;;;-143.90;82.66;74576.84;4827165;28;104827;-75
2024/03/29 07:07:01;;;;;;;;;1.00;1.00;;;;;-143.90;81.66;74612.00;4823430;28;104633;-74
2024/03/29 07:09:26;;;;;;;;;1.00;1.00;;;;;-143.90;75.68;74568.59;4829894;28;104912;-73
2024/03/29 07:11:52;;;;;;;;;1.00;1.00;;;;;-143.90;74.99;74556.19;4827048;28;104572;-74
2024/03/29 07:14:19;;;;;;;;;1.00;1.00;;;;;-143.90;72.18;74527.25;4814368;28;102273;-74
2024/03/29 07:16:45;;;;;;;;;1.00;0.00;;;;;-143.90;74.61;74490.03;4814346;28;102105;-73
2024/03/29 07:19:16;;;;;;;;;0.75;0.00;;;;;-143.90;71.99;74473.50;4827769;28;102085;-73
2024/03/29 07:21:43;;;;;;;;;0.00;0.00;;;;;-143.90;70.25;74465.22;4825141;28;104506;-73
2024/03/29 07:24:09;;;;;;;;;0.00;0.00;;;;;-143.90;70.06;74456.97;4829912;28;102858;-73
2024/03/29 07:26:34;;;;;;;;;0.75;0.00;;;;;-143.90;67.19;74444.56;4821169;28;102570;-74
2024/03/29 07:29:00;;;;;;;;;0.00;0.00;;;;;-143.90;64.66;74471.44;4823723;28;103989;-74
2024/03/29 07:31:26;;;;;;;;;1.50;1.00;;;;;-143.90;67.46;74475.56;4822478;28;104692;-74
2024/03/29 07:33:52;;;;;;;;;0.75;0.75;;;;;-143.90;65.63;74465.22;4820989;28;102205;-73
2024/03/29 07:36:18;;;;;;;;;0.25;0.00;;;;;-143.90;63.05;74475.56;4824997;28;102097;-74
2024/03/29 07:38:46;;;;;;;;;1.00;1.00;;;;;-143.90;65.34;74481.78;4817052;28;102666;-73
2024/03/29 07:41:13;;;;;;;;;1.00;1.00;;;;;-143.90;66.40;74459.03;4824896;28;104623;-72
2024/03/29 07:44:02;;;;;;;;;0.00;0.00;;;;;-143.90;61.49;74459.03;4824963;28;102472;-72
2024/03/29 07:46:32;;;;;;;;;1.00;1.00;;;;;-143.90;59.83;74465.22;4824699;28;102523;-72
2024/03/29 07:48:58;;;;;;;;;1.00;1.00;;;;;-143.90;63.39;74461.09;4815816;28;102996;-73
2024/03/29 07:51:23;;;;;;;;;0.00;0.00;;;;;-143.90;59.76;74467.31;4822941;28;104499;-74
2024/03/29 07:53:49;;;;;;;;;0.00;0.00;;;;;-143.90;63.97;74450.75;4814560;28;103503;-73
2024/03/29 07:56:16;;;;;;;;;1.00;1.00;;;;;-143.90;62.51;74411.50;4822360;28;102471;-72
2024/03/29 07:58:42;;;;;;;;;2.00;0.00;;;;;-143.90;60.72;74432.16;4815278;28;102367;-73
2024/03/29 08:01:07;;;;;;;;;1.00;0.50;;;;;-143.90;59.84;74417.69;4817920;28;108591;-73
2024/03/29 08:03:34;;;;;;;;;0.25;0.25;;;;;-143.90;57.99;74448.69;4828246;28;102599;-72
2024/03/29 08:06:04;;;;;;;;;0.50;0.50;;;;;-143.90;58.74;74425.97;4827654;28;104131;-72
2024/03/29 08:08:30;;;;;;;;;0.00;0.00;;;;;-143.90;56.26;74461.09;4833554;28;102559;-71
2024/03/29 08:10:56;;;;;;;;;0.75;0.25;;;;;-143.90;56.77;74456.97;4820532;28;104883;-72
2024/03/29 08:13:23;;;;;;;;;0.75;0.75;;;;;-143.90;56.34;74450.75;4828453;28;102339;-72
2024/03/29 08:15:48;;;;;;;;;0.00;0.00;;;;;-143.90;56.19;74436.28;4822900;28;102951;-71
2024/03/29 08:18:14;;;;;;;;;0.25;0.00;;;;;-143.90;55.48;74448.69;4830857;28;102664;-72
2024/03/29 08:20:39;;;;;;;;;0.00;0.00;;;;;-143.90;54.88;74442.50;4817565;28;104521;-74
2024/03/29 08:23:05;;;;;;;;;0.00;0.00;;;;;-143.90;55.58;74411.50;4825453;28;105754;-73
2024/03/29 08:25:31;;;;;;;;;1.00;1.00;;;;;-143.90;55.05;74405.28;4828239;28;102573;-73
2024/03/29 08:28:00;;;;;;;;;0.00;0.00;;;;;-143.90;55.80;74370.16;4827524;28;102829;-72
2024/03/29 08:30:26;;;;;;;;;1.00;1.00;;;;;-143.90;53.62;74368.09;4812367;28;104558;-72
2024/03/29 08:32:52;;;;;;;;;0.50;0.50;;;;;-143.90;55.93;74378.41;4822769;28;102466;-74
2024/03/29 08:35:19;;;;;;;;;1.00;1.00;;;;;-143.90;55.24;74361.88;4823425;28;102845;-73
2024/03/29 08:37:45;;;;;;;;;2.00;1.00;;;;;-143.90;54.24;74374.28;4825079;28;104654;-72
2024/03/29 08:40:11;;;;;;;;;1.00;0.50;;;;;-143.90;54.99;74386.69;4829052;28;104850;-72
2024/03/29 08:42:37;;;;;;;;;1.00;0.75;;;;;-143.90;56.54;74339.16;4824130;28;102243;-74
2024/03/29 08:45:05;;;;;;;;;0.00;0.00;;;;;-143.90;54.07;74345.34;4827111;28;102293;-74
2024/03/29 08:47:31;;;;;;;;;0.75;0.75;;;;;-143.90;55.12;74320.53;4834204;28;102368;-73
2024/03/29 08:49:57;;;;;;;;;0.00;0.00;;;;;-143.90;53.89;74293.66;4830095;28;104568;-73
2024/03/29 08:52:22;;;;;;;;;0.50;0.50;;;;;-143.90;52.14;74297.81;4818691;28;102411;-74
2024/03/29 08:54:48;;;;;;;;;0.00;0.00;;;;;-143.90;52.58;74270.94;4827577;28;102284;-73
2024/03/29 08:57:13;;;;;;;;;1.00;1.00;;;;;-143.90;50.99;74283.34;4826620;28;102054;-73
2024/03/29 08:59:41;;;;;;;;;1.25;1.00;;;;;-143.90;51.65;74299.88;4828115;28;102828;-73
2024/03/29 09:02:06;;;;;;;;;1.50;1.50;;;;;-143.90;52.26;74264.72;4830069;28;102508;-73
2024/03/29 09:04:35;;;;;;;;;1.00;1.00;;;;;-143.90;51.90;74275.06;4817664;28;102803;-73
2024/03/29 09:07:03;;;;;;;;;1.25;1.00;;;;;-143.90;53.80;74225.47;4826504;28;102699;-74
2024/03/29 09:09:29;;;;;;;;;0.50;0.00;;;;;-143.90;49.72;74266.81;4826218;28;104608;-72
2024/03/29 09:11:55;;;;;;;;;1.00;0.00;;;;;-143.90;49.79;74270.94;4825976;28;105574;-73
2024/03/29 09:14:21;;;;;;;;;0.50;0.50;;;;;-143.90;51.27;74242.00;4821611;28;102251;-72
2024/03/29 09:16:47;;;;;;;;;0.25;0.25;;;;;-143.90;51.29;74202.72;4828416;28;102350;-72
2024/03/29 09:19:16;;;;;;;;;0.00;0.00;;;;;-143.90;48.23;74246.13;4829093;28;104805;-71
2024/03/29 09:21:42;;;;;;;;;0.25;0.00;;;;;-143.90;47.82;74246.13;4832059;28;102481;-72
2024/03/29 09:24:07;;;;;;;;;1.00;0.00;;;;;-143.90;46.93;74306.06;4836132;28;102179;-72
2024/03/29 09:26:33;;;;;;;;;0.00;0.00;;;;;-143.90;47.39;74275.06;4820700;28;102501;-72
2024/03/29 09:28:59;;;;;;;;;1.00;1.00;;;;;-143.90;47.43;74242.00;4830317;28;104669;-75
2024/03/29 09:31:24;;;;;;;;;0.00;0.00;;;;;-143.90;46.70;74221.31;4831734;28;102417;-72
2024/03/29 09:33:53;;;;;;;;;1.00;0.00;;;;;-143.90;46.01;74221.31;4825700;28;102226;-73
2024/03/29 09:36:25;;;;;;;;;0.00;0.00;;;;;-143.90;46.22;74213.06;4825832;28;102808;-73
2024/03/29 09:38:51;;;;;;;;;0.00;0.00;;;;;-143.90;46.31;74258.53;4826251;28;105639;-73
2024/03/29 09:41:18;;;;;;;;;1.00;0.00;;;;;-143.90;45.37;74242.00;4826858;28;102645;-74
2024/03/29 09:43:47;;;;;;;;;0.50;0.00;;;;;-143.90;43.23;74213.06;4825768;28;102447;-73
2024/03/29 09:46:13;;;;;;;;;0.50;0.00;;;;;-143.90;43.97;74190.31;4825466;28;102282;-73
2024/03/29 09:48:41;;;;;;;;;0.00;0.00;;;;;-143.90;44.10;74225.47;4818230;28;105042;-72
2024/03/29 09:51:08;;;;;;;;;1.50;0.00;;;;;-143.90;41.61;74204.78;4826403;28;102943;-72
2024/03/29 09:53:36;;;;;;;;;0.00;0.00;;;;;-143.90;42.99;74171.72;4828814;28;102365;-72
2024/03/29 09:56:04;;;;;;;;;0.00;0.00;;;;;-143.90;42.95;74146.91;4827576;28;102739;-72
2024/03/29 09:58:31;;;;;;;;;0.00;0.00;;;;;-143.90;42.54;74134.53;4824030;28;104776;-71
2024/03/29 10:00:57;;;;;;;;;0.00;0.00;;;;;-143.90;41.71;74169.66;4825516;28;102786;-72
2024/03/29 10:03:30;;;;;;;;;0.00;0.00;;;;;-143.90;40.90;74140.72;4828542;28;101910;-72
2024/03/29 10:06:00;;;;;;;;;0.00;0.00;;;;;-143.90;41.42;74159.31;4824597;28;102224;-72
2024/03/29 10:08:30;;;;;;;;;0.00;0.00;;;;;-143.90;41.30;74167.59;4822725;28;104847;-73
2024/03/29 10:10:57;;;;;;;;;0.00;0.00;;;;;-143.90;41.80;74134.53;4832305;28;104412;-73
2024/03/29 10:13:23;;;;;;;;;0.00;0.00;;;;;-143.90;40.00;74124.19;4821573;28;102870;-72
2024/03/29 10:15:51;;;;;;;;;1.00;0.25;;;;;-143.90;40.51;74122.13;4828775;28;103243;-72
2024/03/29 10:18:19;;;;;;;;;1.00;1.00;;;;;-143.90;39.90;74149.00;4824388;28;103577;-73
2024/03/29 10:20:46;;;;;;;;;0.00;0.00;;;;;-143.90;40.04;74122.13;4822637;28;104039;-73
2024/03/29 10:23:12;;;;;;;;;0.00;0.00;;;;;-143.90;40.75;74128.31;4843429;28;102519;-73
2024/03/29 10:25:37;;;;;;;;;0.50;0.50;;;;;-143.90;41.68;74091.13;4828194;28;102279;-73
2024/03/29 10:28:04;;;;;;;;;0.00;0.00;;;;;-143.90;41.63;74060.13;4818265;28;104453;-72
2024/03/29 10:30:30;;;;;;;;;1.00;0.00;;;;;-143.90;40.62;74060.13;4815840;28;102376;-72
2024/03/29 10:32:57;;;;;;;;;1.33;0.67;;;;;-143.90;40.28;74043.59;4842128;28;102955;-72
2024/03/29 10:35:24;;;;;;;;;0.00;0.00;;;;;-143.90;40.60;74014.66;4831137;28;102531;-73
2024/03/29 10:37:52;;;;;;;;;0.00;0.00;;;;;-143.90;40.68;74010.50;4824292;28;104640;-73
2024/03/29 10:40:21;;;;;;;;;0.00;0.00;;;;;-143.90;41.63;73983.66;4823877;28;102183;-73
2024/03/29 10:42:48;;;;;;;;;0.00;0.00;;;;;-143.90;40.29;73969.19;4818387;28;104981;-72
2024/03/29 10:45:14;;;;;;;;;0.00;0.00;;;;;-143.90;39.78;73981.56;4832579;28;103102;-72
2024/03/29 10:47:44;;;;;;;;;0.00;0.00;;;;;-143.90;39.40;73979.50;4827119;28;104643;-73
2024/03/29 10:50:13;;;;;;;;;0.00;0.00;;;;;-143.90;37.47;73962.97;4827491;28;102396;-72
2024/03/29 10:52:43;;;;;;;;;1.00;0.00;;;;;-143.90;36.21;73958.84;4806258;28;102683;-72
2024/03/29 10:55:12;;;;;;;;;0.00;0.00;;;;;-143.90;35.58;73987.78;4835755;28;102007;-72
2024/03/29 10:57:42;;;;;;;;;0.00;0.00;;;;;-143.90;35.51;73975.38;4825641;28;109523;-73
2024/03/29 11:00:18;;;;;;;;;0.00;0.00;;;;;-143.90;35.06;73952.63;4826716;28;102200;-73
2024/03/29 11:02:55;;;;;;;;;0.00;0.00;;;;;-143.90;34.46;73942.31;4818583;28;103264;-73
2024/03/29 11:05:21;;;;;;;;;1.67;1.67;;;;;-143.90;34.71;73940.25;4829993;28;103652;-72
2024/03/29 11:07:49;;;;;;;;;1.67;1.67;;;;;-143.90;35.26;73942.31;4828757;28;104452;-72
2024/03/29 11:10:28;;;;;;;;;2.00;2.00;;;;;-143.90;34.44;73934.03;4815949;28;102702;-71